createdAt,value
2022-09-14T00:00:54.751Z,99051.28
2022-09-14T00:03:31.450Z,99040.75
2022-09-14T00:06:03.318Z,99042.81
2022-09-14T00:08:30.838Z,99039.25
2022-09-14T00:10:58.276Z,99050.53
2022-09-14T00:13:25.493Z,99050.75
2022-09-14T00:15:52.996Z,99046.97
2022-09-14T00:18:20.220Z,99048.19
2022-09-14T00:20:47.408Z,99050.84
2022-09-14T00:23:14.936Z,99046.38
2022-09-14T00:25:42.137Z,99038.63
2022-09-14T00:28:09.332Z,99035.91
2022-09-14T00:30:41.263Z,99036.09
2022-09-14T00:33:08.512Z,99034.47
2022-09-14T00:35:36.028Z,99043.41
2022-09-14T00:38:03.495Z,99037.06
2022-09-14T00:40:31.140Z,99036.69
2022-09-14T00:42:58.341Z,99039.34
2022-09-14T00:45:26.173Z,99042.16
2022-09-14T00:47:53.452Z,99037.00
2022-09-14T00:50:21.079Z,99035.38
2022-09-14T00:52:49.032Z,99031.78
2022-09-14T00:55:18.344Z,99020.09
2022-09-14T00:57:49.647Z,99019.25
2022-09-14T01:00:18.432Z,99007.31
2022-09-14T01:02:45.755Z,99018.97
2022-09-14T01:05:13.024Z,99018.72
2022-09-14T01:07:56.951Z,99015.69
2022-09-14T01:10:43.195Z,99009.81
2022-09-14T01:13:10.653Z,99017.81
2022-09-14T01:15:37.963Z,99010.78
2022-09-14T01:18:09.930Z,99013.31
2022-09-14T01:20:37.331Z,99005.63
2022-09-14T01:23:10.973Z,99004.47
2022-09-14T01:25:41.503Z,99003.37
2022-09-14T01:28:34.952Z,99002.25
2022-09-14T01:31:03.300Z,99007.41
2022-09-14T01:33:32.508Z,99005.75
2022-09-14T01:36:00.156Z,99005.28
2022-09-14T01:38:54.076Z,98992.47
2022-09-14T01:41:22.612Z,98997.91
2022-09-14T01:43:51.439Z,98994.75
2022-09-14T01:46:19.473Z,98991.81
2022-09-14T01:49:01.107Z,98988.94
2022-09-14T01:51:29.843Z,98986.41
2022-09-14T01:54:05.656Z,98976.12
2022-09-14T01:56:35.313Z,98969.56
2022-09-14T01:59:05.583Z,98966.59
2022-09-14T02:01:37.807Z,98954.88
2022-09-14T02:04:06.675Z,98958.09
2022-09-14T02:06:40.982Z,98955.84
2022-09-14T02:09:10.405Z,98956.66
2022-09-14T02:11:38.087Z,98945.03
2022-09-14T02:14:05.274Z,98949.56
2022-09-14T02:16:32.792Z,98941.94
2022-09-14T02:19:01.681Z,98937.00
2022-09-14T02:21:29.900Z,98932.13
2022-09-14T02:24:00.543Z,98935.69
2022-09-14T02:26:28.119Z,98941.87
2022-09-14T02:28:56.218Z,98929.97
2022-09-14T02:31:42.658Z,98925.66
2022-09-14T02:34:30.662Z,98926.22
2022-09-14T02:37:08.712Z,98926.87
2022-09-14T02:39:36.676Z,98932.09
2022-09-14T02:42:09.031Z,98931.97
2022-09-14T02:44:36.303Z,98934.34
2022-09-14T02:47:03.824Z,98929.41
2022-09-14T02:49:44.371Z,98920.84
2022-09-14T02:52:15.135Z,98920.75
2022-09-14T02:54:50.967Z,98916.88
2022-09-14T02:57:18.445Z,98921.00
2022-09-14T02:59:45.643Z,98919.28
2022-09-14T03:02:12.907Z,98916.56
2022-09-14T03:04:40.395Z,98901.97
2022-09-14T03:07:08.746Z,98899.56
2022-09-14T03:09:35.977Z,98900.16
2022-09-14T03:12:03.625Z,98900.56
2022-09-14T03:14:30.837Z,98908.59
2022-09-14T03:16:58.276Z,98911.09
2022-09-14T03:19:25.858Z,98906.25
2022-09-14T03:21:53.071Z,98902.81
2022-09-14T03:24:20.385Z,98909.53
2022-09-14T03:26:47.946Z,98903.87
2022-09-14T03:29:15.102Z,98908.50
2022-09-14T03:31:42.396Z,98891.47
2022-09-14T03:34:09.970Z,98894.38
2022-09-14T03:36:37.160Z,98896.56
2022-09-14T03:39:04.351Z,98892.16
2022-09-14T03:41:31.801Z,98901.16
2022-09-14T03:43:59.004Z,98910.22
2022-09-14T03:46:26.295Z,98912.34
2022-09-14T03:48:54.364Z,98907.50
2022-09-14T03:51:21.716Z,98905.81
2022-09-14T03:53:48.933Z,98908.47
2022-09-14T03:56:17.631Z,98904.75
2022-09-14T03:58:45.208Z,98909.84
2022-09-14T04:01:14.557Z,98917.75
2022-09-14T04:03:42.393Z,98907.50
2022-09-14T04:06:10.073Z,98903.75
2022-09-14T04:08:38.204Z,98904.56
2022-09-14T04:11:08.685Z,98905.66
2022-09-14T04:13:35.870Z,98905.75
2022-09-14T04:16:03.121Z,98901.31
2022-09-14T04:18:30.995Z,98893.91
2022-09-14T04:20:58.894Z,98889.75
2022-09-14T04:23:26.221Z,98879.25
2022-09-14T04:25:54.665Z,98880.03
2022-09-14T04:28:22.571Z,98884.19
2022-09-14T04:30:59.060Z,98884.25
2022-09-14T04:33:29.531Z,98873.31
2022-09-14T04:35:58.137Z,98879.59
2022-09-14T04:38:25.430Z,98874.69
2022-09-14T04:40:52.911Z,98874.03
2022-09-14T04:43:20.211Z,98876.75
2022-09-14T04:45:47.527Z,98862.97
2022-09-14T04:48:15.043Z,98859.66
2022-09-14T04:50:42.245Z,98859.91
2022-09-14T04:53:10.209Z,98854.69
2022-09-14T04:55:37.767Z,98852.22
2022-09-14T04:58:05.023Z,98856.63
2022-09-14T05:00:33.543Z,98848.53
2022-09-14T05:03:01.103Z,98852.06
2022-09-14T05:05:28.358Z,98859.19
2022-09-14T05:07:55.542Z,98855.97
2022-09-14T05:10:23.138Z,98857.28
2022-09-14T05:12:50.355Z,98862.00
2022-09-14T05:15:17.557Z,98862.84
2022-09-14T05:17:45.003Z,98872.69
2022-09-14T05:20:12.201Z,98874.41
2022-09-14T05:22:39.402Z,98872.72
2022-09-14T05:25:07.051Z,98876.47
2022-09-14T05:27:34.261Z,98865.63
2022-09-14T05:30:01.588Z,98855.59
2022-09-14T05:32:29.061Z,98839.72
2022-09-14T05:34:56.585Z,98833.81
2022-09-14T05:37:23.842Z,98837.13
2022-09-14T05:39:51.368Z,98848.63
2022-09-14T05:42:18.632Z,98866.03
2022-09-14T05:44:45.824Z,98852.44
2022-09-14T05:47:13.346Z,98853.75
2022-09-14T05:49:40.626Z,98853.13
2022-09-14T05:52:07.822Z,98859.25
2022-09-14T05:54:35.314Z,98865.31
2022-09-14T05:57:02.523Z,98868.44
2022-09-14T05:59:31.683Z,98863.34
2022-09-14T06:01:59.462Z,98862.69
2022-09-14T06:04:27.100Z,98861.00
2022-09-14T06:07:17.054Z,98859.19
2022-09-14T06:09:42.688Z,98856.13
2022-09-14T06:12:09.909Z,98849.91
2022-09-14T06:14:37.095Z,98842.63
2022-09-14T06:17:05.742Z,98845.31
2022-09-14T06:19:32.941Z,98845.81
2022-09-14T06:22:00.686Z,98846.91
2022-09-14T06:24:28.144Z,98852.94
2022-09-14T06:26:55.455Z,98855.22
2022-09-14T06:29:22.738Z,98848.59
2022-09-14T06:31:50.232Z,98846.31
2022-09-14T06:34:17.907Z,98864.03
2022-09-14T06:36:45.672Z,98861.19
2022-09-14T06:39:13.204Z,98875.34
2022-09-14T06:41:40.385Z,98895.44
2022-09-14T06:44:13.057Z,98889.19
2022-09-14T06:46:42.782Z,98895.53
2022-09-14T06:49:13.936Z,98892.94
2022-09-14T06:51:42.418Z,98896.34
2022-09-14T06:54:10.413Z,98893.25
2022-09-14T06:56:38.942Z,98881.66
2022-09-14T06:59:07.499Z,98869.12
2022-09-14T07:01:34.730Z,98865.81
2022-09-14T07:04:02.010Z,98859.75
2022-09-14T07:06:31.023Z,98852.78
2022-09-14T07:08:58.267Z,98850.44
2022-09-14T07:11:26.364Z,98848.78
2022-09-14T07:14:00.458Z,98849.59
2022-09-14T07:16:28.332Z,98869.06
2022-09-14T07:18:56.496Z,98878.34
2022-09-14T07:21:23.999Z,98868.97
2022-09-14T07:23:51.284Z,98869.12
2022-09-14T07:26:25.975Z,98875.28
2022-09-14T07:28:54.484Z,98866.69
2022-09-14T07:33:42.386Z,98864.03
2022-09-14T07:36:10.513Z,98864.03
2022-09-14T07:38:53.533Z,98873.00
2022-09-14T07:41:21.687Z,98876.78
2022-09-14T07:43:50.063Z,98865.87
2022-09-14T07:46:17.429Z,98861.06
2022-09-14T07:48:44.923Z,98857.91
2022-09-14T07:51:12.131Z,98851.44
2022-09-14T07:53:40.508Z,98856.66
2022-09-14T07:56:08.120Z,98851.03
2022-09-14T07:58:35.382Z,98860.19
2022-09-14T08:01:04.201Z,98854.56
2022-09-14T08:03:31.667Z,98842.37
2022-09-14T08:06:00.424Z,98827.87
2022-09-14T08:08:30.947Z,98821.28
2022-09-14T08:11:08.507Z,98828.41
2022-09-14T08:13:35.583Z,98830.16
2022-09-14T08:16:02.871Z,98827.25
2022-09-14T08:18:30.240Z,98829.13
2022-09-14T08:20:57.472Z,98832.47
2022-09-14T08:23:25.296Z,98837.28
2022-09-14T08:25:53.226Z,98827.63
2022-09-14T08:28:20.862Z,98827.13
2022-09-14T08:30:47.950Z,98832.84
2022-09-14T08:33:15.042Z,98806.31
2022-09-14T08:35:57.563Z,98800.47
2022-09-14T08:38:25.482Z,98800.66
2022-09-14T08:40:52.637Z,98813.84
2022-09-14T08:43:19.901Z,98815.88
2022-09-14T08:45:47.025Z,98830.47
2022-09-14T08:48:22.613Z,98817.78
2022-09-14T08:50:53.769Z,98823.12
2022-09-14T08:53:21.606Z,98826.66
2022-09-14T08:55:49.643Z,98810.44
2022-09-14T08:58:16.651Z,98812.56
2022-09-14T09:00:46.172Z,98811.13
2022-09-14T09:03:22.791Z,98819.19
2022-09-14T09:05:52.912Z,98806.34
2022-09-14T09:08:24.638Z,98810.16
2022-09-14T09:10:52.747Z,98804.50
2022-09-14T09:13:20.880Z,98799.91
2022-09-14T09:15:55.772Z,98807.44
2022-09-14T09:18:24.266Z,98817.47
2022-09-14T09:20:52.345Z,98830.47
2022-09-14T09:23:19.379Z,98832.31
2022-09-14T09:26:03.809Z,98839.44
2022-09-14T09:28:30.970Z,98838.38
2022-09-14T09:30:59.728Z,98841.38
2022-09-14T09:33:28.667Z,98852.88
2022-09-14T09:35:56.832Z,98839.12
2022-09-14T09:38:25.603Z,98846.88
2022-09-14T09:41:05.795Z,98844.31
2022-09-14T09:43:48.785Z,98846.75
2022-09-14T09:46:17.065Z,98849.41
2022-09-14T09:48:45.455Z,98841.78
2022-09-14T09:51:19.810Z,98834.78
2022-09-14T09:53:52.099Z,98838.12
2022-09-14T09:56:20.232Z,98838.00
2022-09-14T09:58:51.627Z,98844.75
2022-09-14T10:01:20.364Z,98839.41
2022-09-14T10:04:15.767Z,98842.03
2022-09-14T10:06:43.867Z,98844.50
2022-09-14T10:09:29.254Z,98862.88
2022-09-14T10:11:57.586Z,98865.69
2022-09-14T10:14:31.380Z,98861.06
2022-09-14T10:17:05.935Z,98863.06
2022-09-14T10:19:33.481Z,98862.16
2022-09-14T10:22:02.033Z,98859.09
2022-09-14T10:24:29.278Z,98853.69
2022-09-14T10:26:56.983Z,98843.37
2022-09-14T10:29:29.249Z,98835.13
2022-09-14T10:31:57.793Z,98833.28
2022-09-14T10:34:24.962Z,98825.84
2022-09-14T10:36:54.669Z,98826.53
2022-09-14T10:39:26.121Z,98835.41
2022-09-14T10:42:02.044Z,98829.47
2022-09-14T10:44:48.798Z,98834.78
2022-09-14T10:47:21.955Z,98832.19
2022-09-14T10:50:24.786Z,98825.56
2022-09-14T10:53:10.402Z,98832.44
2022-09-14T10:55:44.755Z,98837.50
2022-09-14T10:58:20.109Z,98838.78
2022-09-14T11:01:10.278Z,98841.87
2022-09-14T11:03:45.252Z,98840.75
2022-09-14T11:06:19.389Z,98841.03
2022-09-14T11:08:48.459Z,98834.50
2022-09-14T11:11:16.086Z,98843.22
2022-09-14T11:13:46.412Z,98837.53
2022-09-14T11:16:13.666Z,98830.53
2022-09-14T11:18:51.496Z,98817.63
2022-09-14T11:21:37.025Z,98815.41
2022-09-14T11:24:22.263Z,98823.34
2022-09-14T11:26:54.958Z,98819.91
2022-09-14T11:29:22.498Z,98825.56
2022-09-14T11:32:10.130Z,98822.19
2022-09-14T11:34:41.261Z,98827.59
2022-09-14T11:37:09.692Z,98829.25
2022-09-14T11:39:38.386Z,98820.09
2022-09-14T11:42:17.897Z,98809.78
2022-09-14T11:44:47.011Z,98798.97
2022-09-14T11:47:18.517Z,98792.53
2022-09-14T11:50:03.759Z,98795.16
2022-09-14T11:52:32.040Z,98799.72
2022-09-14T11:54:59.839Z,98802.97
2022-09-14T11:57:28.055Z,98803.97
2022-09-14T11:59:56.774Z,98805.84
2022-09-14T12:02:24.016Z,98802.28
2022-09-14T12:05:06.822Z,98793.81
2022-09-14T12:07:42.271Z,98793.75
2022-09-14T12:10:16.227Z,98791.78
2022-09-14T12:13:17.525Z,98795.97
2022-09-14T12:15:45.219Z,98788.41
2022-09-14T12:18:13.447Z,98784.53
2022-09-14T12:20:42.986Z,98776.94
2022-09-14T12:23:20.701Z,98776.91
2022-09-14T12:25:56.881Z,98774.91
2022-09-14T12:28:36.460Z,98766.53
2022-09-14T12:31:03.778Z,98770.59
2022-09-14T12:33:31.439Z,98773.16
2022-09-14T12:36:10.977Z,98765.50
2022-09-14T12:38:38.512Z,98757.63
2022-09-14T12:41:14.986Z,98751.47
2022-09-14T12:43:42.505Z,98738.06
2022-09-14T12:46:10.704Z,98738.03
2022-09-14T12:48:55.587Z,98741.25
2022-09-14T12:51:29.430Z,98726.19
2022-09-14T12:54:08.940Z,98715.00
2022-09-14T12:56:55.390Z,98718.84
2022-09-14T12:59:41.430Z,98717.12
2022-09-14T13:02:27.893Z,98704.91
2022-09-14T13:04:55.816Z,98709.09
2022-09-14T13:07:25.862Z,98703.47
2022-09-14T13:09:54.318Z,98692.97
2022-09-14T13:12:30.650Z,98693.25
2022-09-14T13:14:59.218Z,98694.00
2022-09-14T13:17:26.483Z,98692.03
2022-09-14T13:20:05.145Z,98698.41
2022-09-14T13:22:33.210Z,98702.44
2022-09-14T13:25:01.627Z,98702.72
2022-09-14T13:27:28.925Z,98699.06
2022-09-14T13:29:59.479Z,98696.03
2022-09-14T13:32:26.877Z,98705.94
2022-09-14T13:34:54.886Z,98711.50
2022-09-14T13:37:22.566Z,98715.56
2022-09-14T13:39:51.235Z,98705.16
2022-09-14T13:42:18.656Z,98708.62
2022-09-14T13:44:46.817Z,98714.53
2022-09-14T13:47:15.027Z,98707.22
2022-09-14T13:49:42.560Z,98710.28
2022-09-14T13:52:19.165Z,98702.53
2022-09-14T13:54:46.860Z,98703.47
2022-09-14T13:57:15.684Z,98700.88
2022-09-14T14:00:01.722Z,98702.53
2022-09-14T14:02:29.144Z,98706.66
2022-09-14T14:04:56.664Z,98701.38
2022-09-14T14:07:27.573Z,98697.72
2022-09-14T14:09:56.131Z,98694.66
2022-09-14T14:12:31.043Z,98680.81
2022-09-14T14:14:59.357Z,98673.13
2022-09-14T14:17:30.006Z,98680.38
2022-09-14T14:19:58.312Z,98677.75
2022-09-14T14:22:28.490Z,98676.16
2022-09-14T14:25:12.799Z,98670.06
2022-09-14T14:27:43.313Z,98664.56
2022-09-14T14:30:14.017Z,98666.91
2022-09-14T14:32:42.875Z,98674.97
2022-09-14T14:35:17.468Z,98676.06
2022-09-14T14:37:44.847Z,98684.75
2022-09-14T14:40:12.831Z,98668.59
2022-09-14T14:42:40.107Z,98658.66
2022-09-14T14:45:09.277Z,98656.12
2022-09-14T14:47:36.760Z,98656.19
2022-09-14T14:50:04.330Z,98646.13
2022-09-14T14:52:31.709Z,98649.72
2022-09-14T14:55:00.424Z,98654.41
2022-09-14T14:57:28.453Z,98652.72
2022-09-14T14:59:55.703Z,98649.28
2022-09-14T15:02:23.593Z,98644.84
2022-09-14T15:04:50.956Z,98637.56
2022-09-14T15:07:18.199Z,98636.59
2022-09-14T15:09:45.737Z,98646.44
2022-09-14T15:12:13.565Z,98642.06
2022-09-14T15:14:40.887Z,98639.88
2022-09-14T15:17:08.429Z,98632.41
2022-09-14T15:19:35.695Z,98634.09
2022-09-14T15:22:02.942Z,98625.59
2022-09-14T15:24:30.485Z,98621.00
2022-09-14T15:26:58.249Z,98615.03
2022-09-14T15:29:25.510Z,98610.31
2022-09-14T15:31:53.063Z,98616.44
2022-09-14T15:34:20.423Z,98605.75
2022-09-14T15:36:50.977Z,98603.25
2022-09-14T15:39:22.591Z,98612.41
2022-09-14T15:41:50.095Z,98611.59
2022-09-14T15:44:17.654Z,98591.25
2022-09-14T15:46:47.478Z,98595.12
2022-09-14T15:49:17.767Z,98598.97
2022-09-14T15:51:45.438Z,98598.37
2022-09-14T15:54:13.025Z,98598.28
2022-09-14T15:56:40.753Z,98606.09
2022-09-14T15:59:08.701Z,98620.03
2022-09-14T16:01:36.206Z,98615.69
2022-09-14T16:04:08.266Z,98612.91
2022-09-14T16:06:39.824Z,98630.66
2022-09-14T16:09:08.197Z,98651.97
2022-09-14T16:11:35.695Z,98633.25
2022-09-14T16:14:03.071Z,98630.09
2022-09-14T16:16:31.004Z,98651.13
2022-09-14T16:18:58.290Z,98630.09
2022-09-14T16:21:26.362Z,98627.75
2022-09-14T16:23:55.107Z,98637.09
2022-09-14T16:26:25.069Z,98642.16
2022-09-14T16:28:52.797Z,98628.53
2022-09-14T16:31:24.615Z,98626.03
2022-09-14T16:33:53.234Z,98619.03
2022-09-14T16:36:39.853Z,98621.19
2022-09-14T16:39:09.619Z,98615.47
2022-09-14T16:41:39.114Z,98604.38
2022-09-14T16:44:06.952Z,98601.31
2022-09-14T16:46:35.008Z,98605.13
2022-09-14T16:49:03.834Z,98608.84
2022-09-14T16:51:31.374Z,98599.59
2022-09-14T16:54:00.125Z,98609.16
2022-09-14T16:56:29.125Z,98594.25
2022-09-14T16:58:56.505Z,98606.87
2022-09-14T17:01:25.303Z,98598.66
2022-09-14T17:03:53.653Z,98605.81
2022-09-14T17:06:25.143Z,98599.16
2022-09-14T17:08:53.485Z,98596.91
2022-09-14T17:11:20.864Z,98584.78
2022-09-14T17:13:48.203Z,98581.22
2022-09-14T17:16:17.489Z,98575.37
2022-09-14T17:18:45.606Z,98570.25
2022-09-14T17:21:13.755Z,98573.22
2022-09-14T17:23:41.372Z,98570.03
2022-09-14T17:26:09.957Z,98566.31
2022-09-14T17:28:38.930Z,98551.81
2022-09-14T17:31:07.484Z,98545.63
2022-09-14T17:33:35.812Z,98545.41
2022-09-14T17:36:03.964Z,98550.53
2022-09-14T17:38:32.734Z,98548.72
2022-09-14T17:41:07.432Z,98550.03
2022-09-14T17:43:36.045Z,98536.84
2022-09-14T17:46:04.346Z,98533.28
2022-09-14T17:48:34.196Z,98525.88
2022-09-14T17:51:06.908Z,98528.25
2022-09-14T17:53:41.145Z,98533.75
2022-09-14T17:56:15.809Z,98533.12
2022-09-14T17:58:43.961Z,98539.34
2022-09-14T18:01:16.335Z,98535.84
2022-09-14T18:03:44.748Z,98540.00
2022-09-14T18:06:12.521Z,98542.12
2022-09-14T18:08:41.348Z,98541.47
2022-09-14T18:11:10.757Z,98548.03
2022-09-14T18:13:45.255Z,98551.06
2022-09-14T18:16:13.670Z,98564.06
2022-09-14T18:18:41.402Z,98566.63
2022-09-14T18:21:09.208Z,98584.94
2022-09-14T18:23:37.065Z,98574.81
2022-09-14T18:26:05.304Z,98577.78
2022-09-14T18:28:34.095Z,98583.22
2022-09-14T18:31:05.581Z,98575.66
2022-09-14T18:33:33.260Z,98568.75
2022-09-14T18:36:00.663Z,98556.72
2022-09-14T18:38:28.946Z,98551.59
2022-09-14T18:41:02.362Z,98553.13
2022-09-14T18:43:30.889Z,98558.66
2022-09-14T18:45:58.614Z,98548.22
2022-09-14T18:48:27.230Z,98558.41
2022-09-14T18:50:55.856Z,98560.75
2022-09-14T18:53:23.176Z,98553.47
2022-09-14T18:55:50.683Z,98548.81
2022-09-14T18:58:18.550Z,98540.56
2022-09-14T19:00:46.179Z,98532.94
2022-09-14T19:03:13.494Z,98536.28
2022-09-14T19:05:42.886Z,98540.47
2022-09-14T19:08:13.528Z,98539.25
2022-09-14T19:10:41.689Z,98548.44
2022-09-14T19:13:09.678Z,98545.09
2022-09-14T19:15:38.287Z,98535.00
2022-09-14T19:18:07.740Z,98541.31
2022-09-14T19:21:04.748Z,98532.63
2022-09-14T19:23:26.337Z,98534.97
2022-09-14T19:25:54.558Z,98523.00
2022-09-14T19:28:21.811Z,98537.56
2022-09-14T19:30:50.143Z,98538.47
2022-09-14T19:33:17.448Z,98535.34
2022-09-14T19:35:44.837Z,98535.22
2022-09-14T19:38:12.418Z,98536.25
2022-09-14T19:40:39.652Z,98520.41
2022-09-14T19:43:07.025Z,98513.06
2022-09-14T19:45:38.224Z,98509.88
2022-09-14T19:48:05.584Z,98511.81
2022-09-14T19:50:32.888Z,98512.38
2022-09-14T19:53:04.421Z,98511.69
2022-09-14T19:55:32.206Z,98518.00
2022-09-14T19:57:59.459Z,98523.59
2022-09-14T20:00:26.985Z,98524.28
2022-09-14T20:02:54.631Z,98511.94
2022-09-14T20:05:21.873Z,98509.41
2022-09-14T20:07:49.657Z,98505.84
2022-09-14T20:10:18.458Z,98490.84
2022-09-14T20:12:46.652Z,98490.28
2022-09-14T20:15:14.975Z,98495.59
2022-09-14T20:17:42.476Z,98498.56
2022-09-14T20:20:11.111Z,98502.66
2022-09-14T20:22:38.343Z,98494.22
2022-09-14T20:25:06.295Z,98487.19
2022-09-14T20:27:33.555Z,98489.47
2022-09-14T20:30:00.869Z,98503.19
2022-09-14T20:32:28.392Z,98494.78
2022-09-14T20:34:55.579Z,98493.44
2022-09-14T20:37:22.768Z,98486.22
2022-09-14T20:39:50.399Z,98474.59
2022-09-14T20:42:17.666Z,98481.66
2022-09-14T20:44:44.934Z,98472.78
2022-09-14T20:47:12.483Z,98474.81
2022-09-14T20:49:39.697Z,98470.13
2022-09-14T20:52:06.913Z,98475.34
2022-09-14T20:54:34.438Z,98463.91
2022-09-14T20:57:04.449Z,98469.91
2022-09-14T20:59:38.298Z,98464.06
2022-09-14T21:02:05.978Z,98466.59
2022-09-14T21:04:33.915Z,98478.72
2022-09-14T21:10:03.417Z,98486.19
2022-09-14T21:12:30.960Z,98492.87
2022-09-14T21:14:58.214Z,98497.88
2022-09-14T21:17:25.558Z,98490.66
2022-09-14T21:19:53.079Z,98486.19
2022-09-14T21:22:21.445Z,98490.59
2022-09-14T21:24:48.671Z,98498.87
2022-09-14T21:27:16.200Z,98501.66
2022-09-14T21:29:43.453Z,98488.19
2022-09-14T21:32:10.706Z,98479.75
2022-09-14T21:34:38.248Z,98476.66
2022-09-14T21:37:05.487Z,98480.84
2022-09-14T21:39:32.799Z,98481.66
2022-09-14T21:42:00.522Z,98479.06
2022-09-14T21:44:31.120Z,98480.38
2022-09-14T21:46:58.793Z,98469.97
2022-09-14T21:49:26.563Z,98475.28
2022-09-14T21:51:53.869Z,98479.28
2022-09-14T21:54:21.505Z,98485.13
2022-09-14T21:56:49.422Z,98490.28
2022-09-14T21:59:18.271Z,98491.84
2022-09-14T22:01:45.828Z,98487.31
2022-09-14T22:04:31.459Z,98483.34
2022-09-14T22:06:59.386Z,98481.19
2022-09-14T22:09:28.215Z,98480.16
2022-09-14T22:11:55.944Z,98473.12
2022-09-14T22:14:24.572Z,98474.78
2022-09-14T22:16:52.267Z,98470.19
2022-09-14T22:19:20.914Z,98479.13
2022-09-14T22:21:48.539Z,98479.59
2022-09-14T22:24:17.453Z,98476.84
2022-09-14T22:26:44.893Z,98485.19
2022-09-14T22:29:12.972Z,98494.19
2022-09-14T22:31:41.051Z,98493.94
2022-09-14T22:34:08.369Z,98492.69
2022-09-14T22:36:35.865Z,98487.78
2022-09-14T22:39:03.794Z,98483.75
2022-09-14T22:41:31.056Z,98485.06
2022-09-14T22:43:58.310Z,98485.16
2022-09-14T22:46:26.423Z,98480.06
2022-09-14T22:48:53.752Z,98475.41
2022-09-14T22:51:22.076Z,98475.88
2022-09-14T22:53:49.889Z,98468.06
2022-09-14T22:56:21.754Z,98459.75
2022-09-14T22:58:49.302Z,98465.09
2022-09-14T23:01:18.082Z,98477.13
2022-09-14T23:03:45.343Z,98481.75
2022-09-14T23:06:12.597Z,98477.69
2022-09-14T23:08:40.257Z,98476.84
2022-09-14T23:11:11.370Z,98478.81
2022-09-14T23:13:42.413Z,98472.62
2022-09-14T23:16:11.216Z,98467.00
2022-09-14T23:18:38.516Z,98462.97
2022-09-14T23:21:06.125Z,98451.97
2022-09-14T23:23:33.870Z,98457.12
2022-09-14T23:26:05.054Z,98457.56
2022-09-14T23:28:32.432Z,98476.53
2022-09-14T23:31:00.097Z,98478.66
2022-09-14T23:33:27.787Z,98483.28
2022-09-14T23:35:55.040Z,98481.19
2022-09-14T23:38:22.805Z,98487.16
2022-09-14T23:40:50.077Z,98486.28
2022-09-14T23:43:17.956Z,98479.38
2022-09-14T23:45:46.002Z,98466.81
2022-09-14T23:48:13.538Z,98471.22
2022-09-14T23:50:40.804Z,98464.78
2022-09-14T23:53:08.535Z,98448.09
2022-09-14T23:55:35.957Z,98434.66
2022-09-14T23:58:03.568Z,98416.59
